sensor_id;sensor_type;location;lat;lon;timestamp;noise_LAeq;noise_LA_min;noise_LA_max;noise_LA01;noise_LA95
66463;Laerm;56827;52.178;4.500;2023-05-17T00:00:12;34.86;30.35;37.50;;
66463;Laerm;56827;52.178;4.500;2023-05-17T00:00:22;35.85;33.24;38.28;;
66463;Laerm;56827;52.178;4.500;2023-05-17T00:00:32;32.56;31.14;34.82;;
66463;Laerm;56827;52.178;4.500;2023-05-17T00:00:42;31.56;30.09;33.58;;
66463;Laerm;56827;52.178;4.500;2023-05-17T00:00:53;31.38;30.08;32.72;;
66463;Laerm;56827;52.178;4.500;2023-05-17T00:01:03;31.32;29.93;33.62;;
66463;Laerm;56827;52.178;4.500;2023-05-17T00:01:13;35.17;29.96;48.13;;
66463;Laerm;56827;52.178;4.500;2023-05-17T00:01:23;31.11;29.77;32.57;;
66463;Laerm;56827;52.178;4.500;2023-05-17T00:01:34;31.15;29.99;32.19;;
66463;Laerm;56827;52.178;4.500;2023-05-17T00:01:44;32.98;29.71;35.99;;
66463;Laerm;56827;52.178;4.500;2023-05-17T00:01:54;37.04;33.64;39.09;;
66463;Laerm;56827;52.178;4.500;2023-05-17T00:02:05;36.52;33.99;38.93;;
66463;Laerm;56827;52.178;4.500;2023-05-17T00:02:15;33.44;30.88;36.00;;
66463;Laerm;56827;52.178;4.500;2023-05-17T00:02:26;31.06;29.65;34.61;;
66463;Laerm;56827;52.178;4.500;2023-05-17T00:02:36;30.97;29.89;33.71;;
66463;Laerm;56827;52.178;4.500;2023-05-17T00:02:46;31.10;29.89;32.42;;
66463;Laerm;56827;52.178;4.500;2023-05-17T00:02:56;30.92;29.63;32.04;;
66463;Laerm;56827;52.178;4.500;2023-05-17T00:03:06;32.00;30.25;33.57;;
66463;Laerm;56827;52.178;4.500;2023-05-17T00:03:17;32.09;30.64;35.65;;
66463;Laerm;56827;52.178;4.500;2023-05-17T00:03:27;32.19;30.48;33.74;;
66463;Laerm;56827;52.178;4.500;2023-05-17T00:03:37;31.51;30.33;32.79;;
66463;Laerm;56827;52.178;4.500;2023-05-17T00:03:48;34.23;30.57;39.45;;
66463;Laerm;56827;52.178;4.500;2023-05-17T00:03:58;41.29;39.25;42.68;;
66463;Laerm;56827;52.178;4.500;2023-05-17T00:04:08;40.35;39.00;41.69;;
66463;Laerm;56827;52.178;4.500;2023-05-17T00:04:19;38.35;35.67;40.88;;
66463;Laerm;56827;52.178;4.500;2023-05-17T00:04:29;40.36;36.14;43.06;;
66463;Laerm;56827;52.178;4.500;2023-05-17T00:04:42;34.84;32.04;36.75;;
66463;Laerm;56827;52.178;4.500;2023-05-17T00:04:53;33.15;31.11;34.48;;
66463;Laerm;56827;52.178;4.500;2023-05-17T00:05:04;33.61;31.22;35.64;;
66463;Laerm;56827;52.178;4.500;2023-05-17T00:05:14;33.35;31.67;35.32;;
66463;Laerm;56827;52.178;4.500;2023-05-17T00:05:24;32.71;31.17;34.18;;
66463;Laerm;56827;52.178;4.500;2023-05-17T00:05:34;34.29;31.72;36.48;;
66463;Laerm;56827;52.178;4.500;2023-05-17T00:05:45;34.90;33.44;37.07;;
66463;Laerm;56827;52.178;4.500;2023-05-17T00:05:55;37.22;35.41;39.04;;
66463;Laerm;56827;52.178;4.500;2023-05-17T00:06:05;41.39;34.40;45.33;;
66463;Laerm;56827;52.178;4.500;2023-05-17T00:06:16;42.95;39.14;45.57;;
66463;Laerm;56827;52.178;4.500;2023-05-17T00:06:26;37.28;33.47;40.36;;
66463;Laerm;56827;52.178;4.500;2023-05-17T00:06:36;33.78;32.31;39.84;;
66463;Laerm;56827;52.178;4.500;2023-05-17T00:06:46;31.94;30.51;33.49;;
66463;Laerm;56827;52.178;4.500;2023-05-17T00:06:56;33.23;31.56;34.87;;
66463;Laerm;56827;52.178;4.500;2023-05-17T00:07:07;33.23;32.00;34.76;;
66463;Laerm;56827;52.178;4.500;2023-05-17T00:07:17;36.72;34.07;39.47;;
66463;Laerm;56827;52.178;4.500;2023-05-17T00:07:27;36.04;33.85;38.89;;
66463;Laerm;56827;52.178;4.500;2023-05-17T00:07:37;35.84;33.49;38.92;;
66463;Laerm;56827;52.178;4.500;2023-05-17T00:07:48;41.16;38.01;43.04;;
66463;Laerm;56827;52.178;4.500;2023-05-17T00:07:58;39.29;37.66;41.80;;
66463;Laerm;56827;52.178;4.500;2023-05-17T00:08:08;35.68;32.98;38.93;;
66463;Laerm;56827;52.178;4.500;2023-05-17T00:08:19;34.44;32.09;36.40;;
66463;Laerm;56827;52.178;4.500;2023-05-17T00:08:29;32.35;30.85;38.87;;
66463;Laerm;56827;52.178;4.500;2023-05-17T00:08:39;32.37;30.02;36.16;;
66463;Laerm;56827;52.178;4.500;2023-05-17T00:08:49;34.81;32.55;36.63;;
66463;Laerm;56827;52.178;4.500;2023-05-17T00:08:59;38.60;35.56;40.72;;
66463;Laerm;56827;52.178;4.500;2023-05-17T00:09:10;39.39;37.63;41.28;;
66463;Laerm;56827;52.178;4.500;2023-05-17T00:09:20;37.55;36.17;38.75;;
66463;Laerm;56827;52.178;4.500;2023-05-17T00:09:30;36.87;35.31;40.42;;
66463;Laerm;56827;52.178;4.500;2023-05-17T00:09:41;42.19;39.24;44.16;;
66463;Laerm;56827;52.178;4.500;2023-05-17T00:09:51;41.17;38.14;43.89;;
66463;Laerm;56827;52.178;4.500;2023-05-17T00:10:01;39.28;36.75;41.29;;
66463;Laerm;56827;52.178;4.500;2023-05-17T00:10:11;36.71;35.25;38.97;;
66463;Laerm;56827;52.178;4.500;2023-05-17T00:10:22;37.83;35.20;39.51;;
66463;Laerm;56827;52.178;4.500;2023-05-17T00:10:32;34.67;31.32;37.41;;
66463;Laerm;56827;52.178;4.500;2023-05-17T00:10:44;33.31;30.89;34.94;;
66463;Laerm;56827;52.178;4.500;2023-05-17T00:10:54;35.10;32.67;38.73;;
66463;Laerm;56827;52.178;4.500;2023-05-17T00:11:05;38.22;36.58;40.18;;
66463;Laerm;56827;52.178;4.500;2023-05-17T00:11:15;36.90;34.86;38.71;;
66463;Laerm;56827;52.178;4.500;2023-05-17T00:11:25;39.02;35.18;42.45;;
66463;Laerm;56827;52.178;4.500;2023-05-17T00:11:35;37.60;33.98;41.12;;
66463;Laerm;56827;52.178;4.500;2023-05-17T00:11:46;32.66;30.43;35.80;;
66463;Laerm;56827;52.178;4.500;2023-05-17T00:11:56;32.74;30.47;36.76;;
66463;Laerm;56827;52.178;4.500;2023-05-17T00:12:06;41.39;35.32;52.43;;
66463;Laerm;56827;52.178;4.500;2023-05-17T00:12:16;41.81;36.33;45.63;;
66463;Laerm;56827;52.178;4.500;2023-05-17T00:12:27;39.24;36.02;41.23;;
66463;Laerm;56827;52.178;4.500;2023-05-17T00:12:37;38.07;35.76;40.14;;
66463;Laerm;56827;52.178;4.500;2023-05-17T00:12:47;40.34;37.37;42.87;;
66463;Laerm;56827;52.178;4.500;2023-05-17T00:12:57;39.98;35.44;41.89;;
66463;Laerm;56827;52.178;4.500;2023-05-17T00:13:08;37.31;35.28;38.94;;
66463;Laerm;56827;52.178;4.500;2023-05-17T00:13:18;35.91;34.28;37.48;;
66463;Laerm;56827;52.178;4.500;2023-05-17T00:13:28;36.16;34.34;37.70;;
66463;Laerm;56827;52.178;4.500;2023-05-17T00:13:39;39.07;35.55;42.03;;
66463;Laerm;56827;52.178;4.500;2023-05-17T00:13:50;39.82;38.26;41.44;;
66463;Laerm;56827;52.178;4.500;2023-05-17T00:14:00;40.44;37.85;42.11;;
66463;Laerm;56827;52.178;4.500;2023-05-17T00:14:10;39.10;36.99;41.03;;
66463;Laerm;56827;52.178;4.500;2023-05-17T00:14:21;41.95;38.17;44.82;;
66463;Laerm;56827;52.178;4.500;2023-05-17T00:14:31;44.59;41.69;47.03;;
66463;Laerm;56827;52.178;4.500;2023-05-17T00:14:41;41.86;39.17;43.53;;
66463;Laerm;56827;52.178;4.500;2023-05-17T00:14:51;39.51;37.89;41.05;;
66463;Laerm;56827;52.178;4.500;2023-05-17T00:15:02;36.47;33.36;39.34;;
66463;Laerm;56827;52.178;4.500;2023-05-17T00:15:13;34.44;31.93;38.09;;
66463;Laerm;56827;52.178;4.500;2023-05-17T00:15:23;34.14;31.85;42.11;;
66463;Laerm;56827;52.178;4.500;2023-05-17T00:15:33;38.26;35.64;39.99;;
66463;Laerm;56827;52.178;4.500;2023-05-17T00:15:44;41.23;37.90;43.97;;
66463;Laerm;56827;52.178;4.500;2023-05-17T00:15:54;41.04;39.44;43.31;;
66463;Laerm;56827;52.178;4.500;2023-05-17T00:16:07;39.32;37.37;41.69;;
66463;Laerm;56827;52.178;4.500;2023-05-17T00:16:17;37.22;32.82;40.63;;
66463;Laerm;56827;52.178;4.500;2023-05-17T00:16:28;33.42;31.77;35.47;;
66463;Laerm;56827;52.178;4.500;2023-05-17T00:16:38;32.70;31.41;34.11;;
66463;Laerm;56827;52.178;4.500;2023-05-17T00:16:48;32.76;30.80;35.59;;
66463;Laerm;56827;52.178;4.500;2023-05-17T00:16:59;32.20;30.68;33.45;;
66463;Laerm;56827;52.178;4.500;2023-05-17T00:17:09;34.24;32.57;36.71;;
66463;Laerm;56827;52.178;4.500;2023-05-17T00:17:19;42.86;35.84;44.63;;
66463;Laerm;56827;52.178;4.500;2023-05-17T00:17:30;40.12;36.87;44.27;;
66463;Laerm;56827;52.178;4.500;2023-05-17T00:17:40;36.89;34.84;39.15;;
66463;Laerm;56827;52.178;4.500;2023-05-17T00:17:50;42.68;37.28;45.34;;
66463;Laerm;56827;52.178;4.500;2023-05-17T00:18:00;37.86;32.71;42.99;;
66463;Laerm;56827;52.178;4.500;2023-05-17T00:18:11;34.51;32.00;37.83;;
66463;Laerm;56827;52.178;4.500;2023-05-17T00:18:21;36.83;33.90;39.24;;
66463;Laerm;56827;52.178;4.500;2023-05-17T00:18:31;34.30;31.60;37.87;;
66463;Laerm;56827;52.178;4.500;2023-05-17T00:18:41;33.02;31.35;35.57;;
66463;Laerm;56827;52.178;4.500;2023-05-17T00:18:51;35.93;33.00;37.89;;
66463;Laerm;56827;52.178;4.500;2023-05-17T00:19:02;40.77;36.62;43.83;;
66463;Laerm;56827;52.178;4.500;2023-05-17T00:19:12;42.32;40.87;43.95;;
66463;Laerm;56827;52.178;4.500;2023-05-17T00:19:22;38.86;36.21;41.84;;
66463;Laerm;56827;52.178;4.500;2023-05-17T00:19:32;36.94;34.44;38.94;;
66463;Laerm;56827;52.178;4.500;2023-05-17T00:19:43;38.58;35.18;42.98;;
66463;Laerm;56827;52.178;4.500;2023-05-17T00:19:53;42.77;40.11;44.43;;
66463;Laerm;56827;52.178;4.500;2023-05-17T00:20:03;41.76;40.23;43.92;;
66463;Laerm;56827;52.178;4.500;2023-05-17T00:20:14;46.44;42.13;49.34;;
66463;Laerm;56827;52.178;4.500;2023-05-17T00:20:24;44.62;39.66;47.85;;
66463;Laerm;56827;52.178;4.500;2023-05-17T00:20:34;37.93;32.20;41.01;;
66463;Laerm;56827;52.178;4.500;2023-05-17T00:20:45;33.52;32.03;35.32;;
66463;Laerm;56827;52.178;4.500;2023-05-17T00:20:55;34.34;32.24;37.78;;
66463;Laerm;56827;52.178;4.500;2023-05-17T00:21:06;40.66;36.91;42.56;;
66463;Laerm;56827;52.178;4.500;2023-05-17T00:21:16;40.85;39.00;42.52;;
66463;Laerm;56827;52.178;4.500;2023-05-17T00:21:26;37.13;35.39;39.78;;
66463;Laerm;56827;52.178;4.500;2023-05-17T00:21:36;36.79;35.36;38.12;;
66463;Laerm;56827;52.178;4.500;2023-05-17T00:21:47;36.06;32.62;38.43;;
66463;Laerm;56827;52.178;4.500;2023-05-17T00:21:57;32.24;30.98;33.72;;
66463;Laerm;56827;52.178;4.500;2023-05-17T00:22:07;33.22;31.39;34.94;;
66463;Laerm;56827;52.178;4.500;2023-05-17T00:22:17;31.48;30.37;32.95;;
66463;Laerm;56827;52.178;4.500;2023-05-17T00:22:27;31.45;30.28;33.96;;
66463;Laerm;56827;52.178;4.500;2023-05-17T00:22:38;31.24;30.15;32.30;;
66463;Laerm;56827;52.178;4.500;2023-05-17T00:22:49;32.82;30.36;38.91;;
66463;Laerm;56827;52.178;4.500;2023-05-17T00:23:00;38.28;34.93;41.05;;
66463;Laerm;56827;52.178;4.500;2023-05-17T00:23:10;40.50;35.13;44.63;;
66463;Laerm;56827;52.178;4.500;2023-05-17T00:23:20;42.10;40.65;43.29;;
66463;Laerm;56827;52.178;4.500;2023-05-17T00:23:30;41.07;39.29;42.39;;
66463;Laerm;56827;52.178;4.500;2023-05-17T00:23:40;40.21;37.00;43.24;;
66463;Laerm;56827;52.178;4.500;2023-05-17T00:23:51;40.37;34.33;44.44;;
66463;Laerm;56827;52.178;4.500;2023-05-17T00:24:01;46.25;42.39;49.42;;
66463;Laerm;56827;52.178;4.500;2023-05-17T00:24:11;46.72;44.91;48.52;;
66463;Laerm;56827;52.178;4.500;2023-05-17T00:24:21;45.93;44.30;47.18;;
66463;Laerm;56827;52.178;4.500;2023-05-17T00:24:32;44.08;42.11;45.33;;
66463;Laerm;56827;52.178;4.500;2023-05-17T00:24:42;43.05;41.12;44.82;;
66463;Laerm;56827;52.178;4.500;2023-05-17T00:24:52;42.07;40.80;43.49;;
66463;Laerm;56827;52.178;4.500;2023-05-17T00:25:02;41.16;37.70;42.87;;
66463;Laerm;56827;52.178;4.500;2023-05-17T00:25:13;39.37;37.74;40.40;;
66463;Laerm;56827;52.178;4.500;2023-05-17T00:25:23;41.50;37.03;44.15;;
66463;Laerm;56827;52.178;4.500;2023-05-17T00:25:33;47.14;42.17;49.13;;
66463;Laerm;56827;52.178;4.500;2023-05-17T00:25:43;46.19;44.66;48.18;;
66463;Laerm;56827;52.178;4.500;2023-05-17T00:25:54;43.35;38.61;46.59;;
66463;Laerm;56827;52.178;4.500;2023-05-17T00:26:04;37.83;35.51;40.45;;
66463;Laerm;56827;52.178;4.500;2023-05-17T00:26:14;38.24;34.94;43.39;;
66463;Laerm;56827;52.178;4.500;2023-05-17T00:26:24;42.34;37.67;44.84;;
66463;Laerm;56827;52.178;4.500;2023-05-17T00:26:34;35.57;33.67;38.72;;
66463;Laerm;56827;52.178;4.500;2023-05-17T00:26:45;34.71;33.24;36.58;;
66463;Laerm;56827;52.178;4.500;2023-05-17T00:26:55;33.62;30.86;36.08;;
66463;Laerm;56827;52.178;4.500;2023-05-17T00:27:05;31.44;30.08;32.54;;
66463;Laerm;56827;52.178;4.500;2023-05-17T00:27:16;32.29;30.88;35.18;;
66463;Laerm;56827;52.178;4.500;2023-05-17T00:27:26;31.80;30.59;33.81;;
66463;Laerm;56827;52.178;4.500;2023-05-17T00:27:36;33.78;31.01;36.71;;
66463;Laerm;56827;52.178;4.500;2023-05-17T00:27:46;33.23;31.94;34.96;;
66463;Laerm;56827;52.178;4.500;2023-05-17T00:27:57;36.49;31.78;40.29;;
66463;Laerm;56827;52.178;4.500;2023-05-17T00:28:07;38.35;35.68;40.12;;
66463;Laerm;56827;52.178;4.500;2023-05-17T00:28:17;40.53;35.96;44.92;;
66463;Laerm;56827;52.178;4.500;2023-05-17T00:28:27;44.78;42.40;46.55;;
66463;Laerm;56827;52.178;4.500;2023-05-17T00:28:37;39.61;33.78;43.45;;
66463;Laerm;56827;52.178;4.500;2023-05-17T00:28:48;34.76;33.59;36.34;;
66463;Laerm;56827;52.178;4.500;2023-05-17T00:28:58;37.27;34.27;39.16;;
66463;Laerm;56827;52.178;4.500;2023-05-17T00:29:08;36.35;34.56;39.44;;
66463;Laerm;56827;52.178;4.500;2023-05-17T00:29:18;34.50;32.86;36.18;;
66463;Laerm;56827;52.178;4.500;2023-05-17T00:29:29;34.86;32.89;36.48;;
66463;Laerm;56827;52.178;4.500;2023-05-17T00:29:39;35.03;32.91;37.12;;
66463;Laerm;56827;52.178;4.500;2023-05-17T00:29:49;35.97;33.01;47.03;;
66463;Laerm;56827;52.178;4.500;2023-05-17T00:29:59;34.50;33.32;35.72;;
66463;Laerm;56827;52.178;4.500;2023-05-17T00:30:10;35.67;33.03;39.42;;
66463;Laerm;56827;52.178;4.500;2023-05-17T00:30:20;45.52;37.36;48.85;;
66463;Laerm;56827;52.178;4.500;2023-05-17T00:30:30;43.20;38.53;46.90;;
66463;Laerm;56827;52.178;4.500;2023-05-17T00:30:40;38.29;35.51;41.46;;
66463;Laerm;56827;52.178;4.500;2023-05-17T00:30:50;41.41;38.56;45.00;;
66463;Laerm;56827;52.178;4.500;2023-05-17T00:31:01;45.72;43.95;47.50;;
66463;Laerm;56827;52.178;4.500;2023-05-17T00:31:11;43.79;41.43;45.76;;
66463;Laerm;56827;52.178;4.500;2023-05-17T00:31:21;43.22;40.13;45.95;;
66463;Laerm;56827;52.178;4.500;2023-05-17T00:31:31;38.22;35.00;41.60;;
66463;Laerm;56827;52.178;4.500;2023-05-17T00:31:41;42.92;33.42;48.44;;
66463;Laerm;56827;52.178;4.500;2023-05-17T00:31:52;47.18;45.78;48.99;;
66463;Laerm;56827;52.178;4.500;2023-05-17T00:32:02;47.64;39.06;64.33;;
66463;Laerm;56827;52.178;4.500;2023-05-17T00:32:12;43.98;38.06;55.08;;
66463;Laerm;56827;52.178;4.500;2023-05-17T00:32:23;38.13;36.08;42.33;;
66463;Laerm;56827;52.178;4.500;2023-05-17T00:32:33;36.46;31.06;40.37;;
66463;Laerm;56827;52.178;4.500;2023-05-17T00:32:43;38.53;31.37;41.17;;
66463;Laerm;56827;52.178;4.500;2023-05-17T00:32:55;41.99;38.73;46.07;;
66463;Laerm;56827;52.178;4.500;2023-05-17T00:33:05;44.61;40.51;46.74;;
66463;Laerm;56827;52.178;4.500;2023-05-17T00:33:16;40.78;39.35;42.33;;
66463;Laerm;56827;52.178;4.500;2023-05-17T00:33:26;40.45;38.23;42.30;;
66463;Laerm;56827;52.178;4.500;2023-05-17T00:33:36;39.19;37.16;41.05;;
66463;Laerm;56827;52.178;4.500;2023-05-17T00:33:46;40.96;39.24;42.41;;
66463;Laerm;56827;52.178;4.500;2023-05-17T00:33:56;46.82;40.40;49.36;;
66463;Laerm;56827;52.178;4.500;2023-05-17T00:34:07;44.34;42.20;47.51;;
66463;Laerm;56827;52.178;4.500;2023-05-17T00:34:17;40.60;38.48;43.81;;
66463;Laerm;56827;52.178;4.500;2023-05-17T00:34:27;43.48;42.19;45.47;;
66463;Laerm;56827;52.178;4.500;2023-05-17T00:34:37;40.39;37.78;43.37;;
66463;Laerm;56827;52.178;4.500;2023-05-17T00:34:47;36.65;34.17;39.71;;
66463;Laerm;56827;52.178;4.500;2023-05-17T00:34:58;37.82;34.62;39.68;;
66463;Laerm;56827;52.178;4.500;2023-05-17T00:35:08;39.44;37.69;41.09;;
66463;Laerm;56827;52.178;4.500;2023-05-17T00:35:18;37.63;34.19;41.49;;
66463;Laerm;56827;52.178;4.500;2023-05-17T00:35:29;44.30;40.65;45.89;;
66463;Laerm;56827;52.178;4.500;2023-05-17T00:35:39;45.83;42.19;48.49;;
66463;Laerm;56827;52.178;4.500;2023-05-17T00:35:49;45.92;40.47;47.89;;
66463;Laerm;56827;52.178;4.500;2023-05-17T00:36:00;44.74;41.32;47.20;;
66463;Laerm;56827;52.178;4.500;2023-05-17T00:36:10;43.85;42.03;45.70;;
66463;Laerm;56827;52.178;4.500;2023-05-17T00:36:20;43.64;41.01;45.56;;
66463;Laerm;56827;52.178;4.500;2023-05-17T00:36:31;45.38;43.66;46.95;;
66463;Laerm;56827;52.178;4.500;2023-05-17T00:36:41;46.06;42.50;48.57;;
66463;Laerm;56827;52.178;4.500;2023-05-17T00:36:51;41.23;38.12;44.68;;
66463;Laerm;56827;52.178;4.500;2023-05-17T00:37:01;44.48;38.95;46.86;;
66463;Laerm;56827;52.178;4.500;2023-05-17T00:37:11;44.25;41.89;46.49;;
66463;Laerm;56827;52.178;4.500;2023-05-17T00:37:22;45.00;42.51;47.36;;
66463;Laerm;56827;52.178;4.500;2023-05-17T00:37:32;44.41;39.58;47.84;;
66463;Laerm;56827;52.178;4.500;2023-05-17T00:37:42;42.27;40.90;43.55;;
66463;Laerm;56827;52.178;4.500;2023-05-17T00:37:56;39.93;37.06;42.92;;
66463;Laerm;56827;52.178;4.500;2023-05-17T00:38:07;38.86;36.79;41.44;;
66463;Laerm;56827;52.178;4.500;2023-05-17T00:38:17;42.68;40.34;47.15;;
66463;Laerm;56827;52.178;4.500;2023-05-17T00:38:27;43.86;40.02;56.37;;
66463;Laerm;56827;52.178;4.500;2023-05-17T00:38:37;39.79;38.60;41.34;;
66463;Laerm;56827;52.178;4.500;2023-05-17T00:38:48;37.40;33.75;40.08;;
66463;Laerm;56827;52.178;4.500;2023-05-17T00:38:58;35.09;32.83;36.98;;
66463;Laerm;56827;52.178;4.500;2023-05-17T00:39:08;37.90;35.25;40.37;;
66463;Laerm;56827;52.178;4.500;2023-05-17T00:39:18;37.32;35.21;39.26;;
66463;Laerm;56827;52.178;4.500;2023-05-17T00:39:28;37.16;35.06;38.85;;
66463;Laerm;56827;52.178;4.500;2023-05-17T00:39:39;36.62;34.40;39.33;;
66463;Laerm;56827;52.178;4.500;2023-05-17T00:39:49;33.51;32.13;35.33;;
66463;Laerm;56827;52.178;4.500;2023-05-17T00:39:59;32.24;30.36;33.90;;
66463;Laerm;56827;52.178;4.500;2023-05-17T00:40:09;32.90;30.86;34.63;;
66463;Laerm;56827;52.178;4.500;2023-05-17T00:40:20;35.36;31.38;39.02;;
66463;Laerm;56827;52.178;4.500;2023-05-17T00:40:30;35.42;33.88;37.76;;
66463;Laerm;56827;52.178;4.500;2023-05-17T00:40:41;33.62;31.51;35.73;;
66463;Laerm;56827;52.178;4.500;2023-05-17T00:40:51;31.73;30.24;33.46;;
66463;Laerm;56827;52.178;4.500;2023-05-17T00:41:03;31.93;30.77;33.73;;
66463;Laerm;56827;52.178;4.500;2023-05-17T00:41:13;32.90;31.77;34.25;;
66463;Laerm;56827;52.178;4.500;2023-05-17T00:41:23;34.30;32.29;37.76;;
66463;Laerm;56827;52.178;4.500;2023-05-17T00:41:33;33.37;31.46;35.50;;
66463;Laerm;56827;52.178;4.500;2023-05-17T00:41:44;34.69;31.71;37.32;;
66463;Laerm;56827;52.178;4.500;2023-05-17T00:41:54;33.45;31.70;35.16;;
66463;Laerm;56827;52.178;4.500;2023-05-17T00:42:04;34.25;32.09;36.47;;
66463;Laerm;56827;52.178;4.500;2023-05-17T00:42:17;34.29;32.38;36.79;;
66463;Laerm;56827;52.178;4.500;2023-05-17T00:42:27;37.24;33.14;40.28;;
66463;Laerm;56827;52.178;4.500;2023-05-17T00:42:37;37.03;35.52;39.06;;
66463;Laerm;56827;52.178;4.500;2023-05-17T00:42:47;39.81;36.34;43.75;;
66463;Laerm;56827;52.178;4.500;2023-05-17T00:42:58;39.38;36.68;42.17;;
66463;Laerm;56827;52.178;4.500;2023-05-17T00:43:08;39.36;37.42;41.65;;
66463;Laerm;56827;52.178;4.500;2023-05-17T00:43:18;38.62;36.90;40.39;;
66463;Laerm;56827;52.178;4.500;2023-05-17T00:43:28;36.90;34.71;39.21;;
66463;Laerm;56827;52.178;4.500;2023-05-17T00:43:39;40.73;36.53;49.55;;
66463;Laerm;56827;52.178;4.500;2023-05-17T00:43:49;37.17;35.33;38.70;;
66463;Laerm;56827;52.178;4.500;2023-05-17T00:44:00;38.63;36.87;40.37;;
66463;Laerm;56827;52.178;4.500;2023-05-17T00:44:11;40.26;37.26;41.99;;
66463;Laerm;56827;52.178;4.500;2023-05-17T00:44:21;35.89;32.95;38.20;;
66463;Laerm;56827;52.178;4.500;2023-05-17T00:44:31;34.96;33.31;36.88;;
66463;Laerm;56827;52.178;4.500;2023-05-17T00:44:41;36.73;34.61;38.86;;
66463;Laerm;56827;52.178;4.500;2023-05-17T00:44:52;35.25;34.14;36.62;;
66463;Laerm;56827;52.178;4.500;2023-05-17T00:45:02;35.51;34.05;36.87;;
66463;Laerm;56827;52.178;4.500;2023-05-17T00:45:12;34.71;33.48;36.08;;
66463;Laerm;56827;52.178;4.500;2023-05-17T00:45:22;37.36;33.31;40.06;;
66463;Laerm;56827;52.178;4.500;2023-05-17T00:45:32;40.29;38.82;41.80;;
66463;Laerm;56827;52.178;4.500;2023-05-17T00:45:43;42.78;39.38;45.64;;
66463;Laerm;56827;52.178;4.500;2023-05-17T00:45:53;43.29;39.79;45.87;;
66463;Laerm;56827;52.178;4.500;2023-05-17T00:46:03;39.81;38.32;41.60;;
66463;Laerm;56827;52.178;4.500;2023-05-17T00:46:13;39.24;37.78;41.21;;
66463;Laerm;56827;52.178;4.500;2023-05-17T00:46:25;37.06;33.73;40.87;;
66463;Laerm;56827;52.178;4.500;2023-05-17T00:46:35;36.19;34.06;37.41;;
66463;Laerm;56827;52.178;4.500;2023-05-17T00:46:45;38.59;35.00;43.17;;
66463;Laerm;56827;52.178;4.500;2023-05-17T00:46:55;44.50;41.73;46.33;;
66463;Laerm;56827;52.178;4.500;2023-05-17T00:47:08;43.34;40.63;45.87;;
66463;Laerm;56827;52.178;4.500;2023-05-17T00:47:18;39.38;35.24;41.88;;
66463;Laerm;56827;52.178;4.500;2023-05-17T00:47:29;39.34;36.04;42.75;;
66463;Laerm;56827;52.178;4.500;2023-05-17T00:47:41;38.71;34.47;41.57;;
66463;Laerm;56827;52.178;4.500;2023-05-17T00:47:51;39.65;33.55;43.82;;
66463;Laerm;56827;52.178;4.500;2023-05-17T00:48:01;45.78;40.91;50.71;;
66463;Laerm;56827;52.178;4.500;2023-05-17T00:48:12;41.59;35.47;47.28;;
66463;Laerm;56827;52.178;4.500;2023-05-17T00:48:22;39.65;35.64;43.40;;
66463;Laerm;56827;52.178;4.500;2023-05-17T00:48:34;40.57;35.52;42.97;;
66463;Laerm;56827;52.178;4.500;2023-05-17T00:48:45;42.09;35.56;47.39;;
66463;Laerm;56827;52.178;4.500;2023-05-17T00:48:55;34.88;32.63;40.07;;
66463;Laerm;56827;52.178;4.500;2023-05-17T00:49:05;32.67;31.05;34.20;;
66463;Laerm;56827;52.178;4.500;2023-05-17T00:49:16;41.49;32.59;44.40;;
66463;Laerm;56827;52.178;4.500;2023-05-17T00:49:26;41.94;40.04;44.25;;
66463;Laerm;56827;52.178;4.500;2023-05-17T00:49:36;41.09;39.18;42.81;;
66463;Laerm;56827;52.178;4.500;2023-05-17T00:49:47;39.99;38.31;41.55;;
66463;Laerm;56827;52.178;4.500;2023-05-17T00:49:57;37.54;35.07;39.79;;
66463;Laerm;56827;52.178;4.500;2023-05-17T00:50:07;36.31;34.50;38.69;;
66463;Laerm;56827;52.178;4.500;2023-05-17T00:50:18;35.17;33.02;37.45;;
66463;Laerm;56827;52.178;4.500;2023-05-17T00:50:28;36.90;35.39;38.12;;
66463;Laerm;56827;52.178;4.500;2023-05-17T00:50:38;34.05;31.75;37.06;;
66463;Laerm;56827;52.178;4.500;2023-05-17T00:50:49;32.33;30.48;33.90;;
66463;Laerm;56827;52.178;4.500;2023-05-17T00:50:59;35.72;31.14;38.41;;
66463;Laerm;56827;52.178;4.500;2023-05-17T00:51:10;37.54;36.23;39.33;;
66463;Laerm;56827;52.178;4.500;2023-05-17T00:51:20;36.36;30.57;52.13;;
66463;Laerm;56827;52.178;4.500;2023-05-17T00:51:31;33.22;29.96;48.42;;
66463;Laerm;56827;52.178;4.500;2023-05-17T00:51:42;33.19;30.77;35.80;;
66463;Laerm;56827;52.178;4.500;2023-05-17T00:51:53;33.52;32.25;35.48;;
66463;Laerm;56827;52.178;4.500;2023-05-17T00:52:04;36.58;31.72;51.11;;
66463;Laerm;56827;52.178;4.500;2023-05-17T00:52:14;36.18;31.83;49.36;;
66463;Laerm;56827;52.178;4.500;2023-05-17T00:52:25;31.90;30.63;34.73;;
66463;Laerm;56827;52.178;4.500;2023-05-17T00:52:35;34.47;31.94;36.87;;
66463;Laerm;56827;52.178;4.500;2023-05-17T00:52:45;32.18;30.44;34.27;;
66463;Laerm;56827;52.178;4.500;2023-05-17T00:52:56;32.47;30.60;34.99;;
66463;Laerm;56827;52.178;4.500;2023-05-17T00:53:06;31.22;30.26;32.44;;
66463;Laerm;56827;52.178;4.500;2023-05-17T00:53:17;31.45;30.11;32.69;;
66463;Laerm;56827;52.178;4.500;2023-05-17T00:53:28;31.11;29.72;32.45;;
66463;Laerm;56827;52.178;4.500;2023-05-17T00:53:38;32.01;30.56;34.57;;
66463;Laerm;56827;52.178;4.500;2023-05-17T00:53:49;33.29;31.49;35.26;;
66463;Laerm;56827;52.178;4.500;2023-05-17T00:53:59;32.49;30.95;33.71;;
66463;Laerm;56827;52.178;4.500;2023-05-17T00:54:10;35.88;31.29;41.00;;
66463;Laerm;56827;52.178;4.500;2023-05-17T00:54:21;40.97;39.23;42.35;;
66463;Laerm;56827;52.178;4.500;2023-05-17T00:54:31;39.37;37.54;41.76;;
66463;Laerm;56827;52.178;4.500;2023-05-17T00:54:42;38.33;34.97;40.95;;
66463;Laerm;56827;52.178;4.500;2023-05-17T00:54:52;33.79;32.56;35.92;;
66463;Laerm;56827;52.178;4.500;2023-05-17T00:55:03;33.18;30.71;35.85;;
66463;Laerm;56827;52.178;4.500;2023-05-17T00:55:13;31.68;30.61;32.85;;
66463;Laerm;56827;52.178;4.500;2023-05-17T00:55:23;32.15;30.88;34.97;;
66463;Laerm;56827;52.178;4.500;2023-05-17T00:55:34;32.87;31.09;35.52;;
66463;Laerm;56827;52.178;4.500;2023-05-17T00:55:44;35.58;33.99;37.39;;
66463;Laerm;56827;52.178;4.500;2023-05-17T00:55:58;35.12;33.36;39.40;;
66463;Laerm;56827;52.178;4.500;2023-05-17T00:56:08;36.46;31.25;40.27;;
66463;Laerm;56827;52.178;4.500;2023-05-17T00:56:19;32.98;30.77;34.75;;
66463;Laerm;56827;52.178;4.500;2023-05-17T00:56:29;31.81;30.41;33.24;;
66463;Laerm;56827;52.178;4.500;2023-05-17T00:56:40;33.72;31.69;36.37;;
66463;Laerm;56827;52.178;4.500;2023-05-17T00:56:53;35.91;33.53;38.67;;
66463;Laerm;56827;52.178;4.500;2023-05-17T00:57:03;36.85;34.20;39.42;;
66463;Laerm;56827;52.178;4.500;2023-05-17T00:57:14;34.07;32.28;35.86;;
66463;Laerm;56827;52.178;4.500;2023-05-17T00:57:25;37.60;32.42;40.41;;
66463;Laerm;56827;52.178;4.500;2023-05-17T00:57:37;36.75;32.72;40.05;;
66463;Laerm;56827;52.178;4.500;2023-05-17T00:57:48;39.07;32.72;43.85;;
66463;Laerm;56827;52.178;4.500;2023-05-17T00:57:58;40.32;36.82;42.90;;
66463;Laerm;56827;52.178;4.500;2023-05-17T00:58:09;37.09;35.29;39.95;;
66463;Laerm;56827;52.178;4.500;2023-05-17T00:58:20;40.98;35.60;43.37;;